Time;durP1;ratioP1;P1;durP2;ratioP2;P2;SDS_P1;SDS_P2;PMS_P1;PMS_P2;Temp;Humidity;BMP_temperature;BMP_pressure;BME280_temperature;BME280_humidity;BME280_pressure;Samples;Min_cycle;Max_cycle;Signal;HPM_P1;HPM_P2
2022/03/09 00:00:07;;;;;;;30.23;4.30;;;;;;;22.47;36.17;102033.06;4198139;28;20098;-75
2022/03/09 00:02:09;;;;;;;27.58;4.85;;;;;;;22.44;35.82;102030.78;4197553;28;20036;-74
2022/03/09 00:04:11;;;;;;;30.42;4.50;;;;;;;22.47;35.92;102038.63;4198027;28;20086;-76
2022/03/09 00:06:12;;;;;;;36.83;4.18;;;;;;;22.38;35.96;102035.47;4198242;28;20044;-75
2022/03/09 00:08:13;;;;;;;22.48;4.10;;;;;;;22.47;35.77;102049.78;4198127;28;20439;-78
2022/03/09 00:10:15;;;;;;;24.02;4.55;;;;;;;22.44;35.77;102044.72;4198190;28;20032;-75
2022/03/09 00:12:20;;;;;;;32.13;5.30;;;;;;;22.42;35.87;102041.38;4180137;28;20116;-74
2022/03/09 00:14:22;;;;;;;25.42;5.40;;;;;;;22.45;35.58;102054.78;4197822;28;20040;-73
2022/03/09 00:16:23;;;;;;;31.50;3.95;;;;;;;22.46;35.60;102062.06;4197968;28;20094;-74
2022/03/09 00:18:24;;;;;;;32.40;5.38;;;;;;;22.46;35.76;102062.06;4198515;28;20094;-76
2022/03/09 00:20:25;;;;;;;25.20;4.15;;;;;;;22.44;35.62;102061.47;4197275;28;20442;-72
2022/03/09 00:22:27;;;;;;;39.45;4.35;;;;;;;22.44;35.67;102067.03;4198151;28;20048;-74
2022/03/09 00:24:29;;;;;;;26.20;3.90;;;;;;;22.33;35.85;102050.22;4203340;28;20178;-76
2022/03/09 00:26:30;;;;;;;22.08;4.35;;;;;;;22.41;35.81;102056.44;4197245;28;20032;-77
2022/03/09 00:28:32;;;;;;;24.30;4.07;;;;;;;22.45;35.68;102068.72;4198012;28;20094;-74
2022/03/09 00:30:36;;;;;;;25.10;3.83;;;;;;;22.43;35.54;102057.84;4197906;28;20090;-74
2022/03/09 00:32:39;;;;;;;22.67;4.32;;;;;;;22.44;35.63;102061.47;4198498;28;20045;-75
2022/03/09 00:34:41;;;;;;;21.92;5.10;;;;;;;22.38;35.77;102052.22;4197249;28;20098;-73
2022/03/09 00:36:42;;;;;;;24.02;5.03;;;;;;;22.41;35.87;102057.28;4197831;28;20094;-74
2022/03/09 00:38:46;;;;;;;30.60;4.45;;;;;;;22.41;35.89;102039.69;4198703;28;20435;-75
2022/03/09 00:40:49;;;;;;;20.98;3.72;;;;;;;22.41;35.71;102050.84;4200740;28;20483;-70
2022/03/09 00:42:55;;;;;;;24.33;4.10;;;;;;;22.42;35.53;102046.97;4199633;28;20484;-70
2022/03/09 00:44:57;;;;;;;29.58;4.78;;;;;;;22.41;35.44;102051.69;4199402;28;20426;-71
2022/03/09 00:46:58;;;;;;;25.65;4.32;;;;;;;22.35;35.46;102036.00;4199635;28;20435;-71
2022/03/09 00:49:00;;;;;;;20.70;4.03;;;;;;;22.40;35.56;102043.56;4199035;28;20453;-69
2022/03/09 00:51:01;;;;;;;27.63;4.05;;;;;;;22.40;35.77;102044.41;4198249;28;20074;-68
2022/03/09 00:53:03;;;;;;;26.35;4.03;;;;;;;22.39;35.54;102042.72;4198764;28;20041;-68
2022/03/09 00:55:06;;;;;;;20.50;3.53;;;;;;;22.40;35.40;102057.53;4198452;28;20036;-68
2022/03/09 00:57:07;;;;;;;22.85;4.15;;;;;;;22.38;35.78;102055.00;4197806;28;20037;-69
2022/03/09 00:59:08;;;;;;;19.40;3.63;;;;;;;22.39;35.49;102051.09;4197975;28;20036;-69
2022/03/09 01:01:10;;;;;;;22.65;3.88;;;;;;;22.37;35.82;102044.13;4197860;28;20040;-70
2022/03/09 01:03:12;;;;;;;20.15;3.75;;;;;;;22.39;35.83;102051.09;4186226;28;20044;-70
2022/03/09 01:05:14;;;;;;;22.35;4.75;;;;;;;22.38;35.62;102041.06;4201680;28;20159;-69
2022/03/09 01:07:15;;;;;;;25.23;3.60;;;;;;;22.39;35.66;102036.31;4200047;28;20052;-69
2022/03/09 01:09:17;;;;;;;22.58;4.50;;;;;;;22.38;35.42;102040.22;4202016;28;20062;-69
2022/03/09 01:11:19;;;;;;;20.58;3.92;;;;;;;22.31;35.39;102030.13;4201211;28;20036;-71
2022/03/09 01:13:21;;;;;;;26.55;4.15;;;;;;;22.37;35.45;102044.97;4201870;28;20549;-71
2022/03/09 01:15:25;;;;;;;26.52;4.25;;;;;;;22.38;35.70;102051.38;4201464;28;20372;-70
2022/03/09 01:17:27;;;;;;;19.95;3.83;;;;;;;22.35;35.57;102040.75;4209299;28;20074;-70
2022/03/09 01:19:28;;;;;;;17.65;3.40;;;;;;;22.39;35.33;102050.25;4201372;28;20029;-70
2022/03/09 01:21:30;;;;;;;22.02;4.32;;;;;;;22.40;35.30;102065.88;4201447;28;20106;-70
2022/03/09 01:23:31;;;;;;;22.77;4.13;;;;;;;22.36;35.63;102076.75;4202319;28;20090;-70
2022/03/09 01:25:35;;;;;;;24.17;4.22;;;;;;;22.37;35.31;102084.00;4201102;28;20094;-71
2022/03/09 01:27:40;;;;;;;21.92;5.55;;;;;;;22.37;35.44;102084.00;4200936;28;20098;-69
2022/03/09 01:29:41;;;;;;;25.73;4.57;;;;;;;22.32;35.52;102081.16;4200470;28;20463;-70
2022/03/09 01:31:42;;;;;;;23.85;3.70;;;;;;;22.37;35.42;102097.94;4200341;28;20760;-69
2022/03/09 01:33:44;;;;;;;17.45;3.22;;;;;;;22.38;35.52;102107.16;4200975;28;20040;-70
2022/03/09 01:35:48;;;;;;;32.85;4.32;;;;;;;22.35;35.27;102097.34;4204728;28;20094;-70
2022/03/09 01:37:50;;;;;;;22.30;4.05;;;;;;;22.37;35.14;102100.75;4200969;28;20423;-71
2022/03/09 01:39:54;;;;;;;18.85;3.47;;;;;;;22.34;35.27;102112.41;4200648;28;20111;-71
2022/03/09 01:41:56;;;;;;;24.65;4.75;;;;;;;22.34;35.62;102109.63;4199828;28;20045;-70
2022/03/09 01:44:08;;;;;;;17.48;3.22;;;;;;;22.34;35.37;102123.56;4204444;28;20044;-71
2022/03/09 01:46:09;;;;;;;29.67;4.88;;;;;;;22.32;35.62;102132.19;4199856;28;20098;-71
2022/03/09 01:48:10;;;;;;;18.25;4.22;;;;;;;22.35;35.45;102133.59;4200373;28;20545;-70
2022/03/09 01:50:12;;;;;;;18.17;3.95;;;;;;;22.36;35.36;102137.22;4200276;28;20036;-70
2022/03/09 01:52:13;;;;;;;21.33;4.20;;;;;;;22.33;35.38;102133.88;4199304;28;20033;-70
2022/03/09 01:54:17;;;;;;;14.75;3.08;;;;;;;22.32;35.23;102126.63;4200155;28;20040;-71
2022/03/09 01:56:19;;;;;;;16.60;3.47;;;;;;;22.35;35.12;102118.81;4200965;28;20102;-70
2022/03/09 01:58:21;;;;;;;18.92;3.25;;;;;;;22.31;35.48;102112.91;4200077;28;20312;-69
2022/03/09 02:00:22;;;;;;;18.35;3.35;;;;;;;22.32;35.34;102129.41;4200533;28;20442;-70
2022/03/09 02:02:24;;;;;;;16.83;3.63;;;;;;;22.30;34.97;102123.25;4204075;28;20037;-70
2022/03/09 02:04:25;;;;;;;16.45;3.25;;;;;;;22.30;35.39;102128.81;4200709;28;20472;-70
2022/03/09 02:06:26;;;;;;;17.65;3.85;;;;;;;22.33;35.40;102130.25;4201430;28;20097;-69
2022/03/09 02:10:50;;;;;;;17.80;4.15;;;;;;;22.26;35.21;102135.19;4200809;28;20542;-69
2022/03/09 02:12:51;;;;;;;17.95;3.88;;;;;;;22.31;35.40;102158.41;4200448;28;20041;-70
2022/03/09 02:14:55;;;;;;;16.83;3.33;;;;;;;22.31;35.34;102158.41;4200887;28;20090;-70
2022/03/09 02:16:58;;;;;;;16.67;3.78;;;;;;;22.29;35.31;102154.19;4200151;28;20534;-70
2022/03/09 02:19:01;;;;;;;17.17;3.50;;;;;;;22.29;35.42;102166.19;4200562;28;20094;-70
2022/03/09 02:21:03;;;;;;;17.17;3.33;;;;;;;22.28;35.15;102164.50;4199802;28;20094;-71
2022/03/09 02:23:04;;;;;;;14.88;3.20;;;;;;;22.30;35.45;102155.88;4199670;28;20048;-70
2022/03/09 02:25:14;;;;;;;18.63;3.40;;;;;;;22.29;35.28;102155.03;4201264;28;20465;-69
2022/03/09 02:27:17;;;;;;;17.50;3.47;;;;;;;22.30;35.10;102150.28;4203190;28;20040;-71
2022/03/09 02:29:18;;;;;;;13.90;3.35;;;;;;;22.28;35.09;102150.56;4199189;28;20525;-71
2022/03/09 02:31:19;;;;;;;12.18;3.47;;;;;;;22.24;35.42;102152.19;4199806;28;20449;-70
2022/03/09 02:33:24;;;;;;;14.88;3.25;;;;;;;22.25;35.07;102153.84;4200245;28;20436;-70
2022/03/09 02:35:25;;;;;;;13.98;3.25;;;;;;;22.23;35.31;102158.03;4201407;28;20029;-71
2022/03/09 02:37:27;;;;;;;12.65;2.63;;;;;;;22.29;35.32;102160.59;4199848;28;20094;-70
2022/03/09 02:39:28;;;;;;;16.83;3.63;;;;;;;22.29;35.12;102160.59;4201000;28;20461;-70
2022/03/09 02:41:33;;;;;;;11.43;3.05;;;;;;;22.28;35.11;102164.50;4199969;28;20044;-70
2022/03/09 02:43:34;;;;;;;;;;;;;;;22.26;35.10;102149.13;4199626;28;20041;-70
2022/03/09 02:45:35;;;;;;;24.02;3.95;;;;;;;22.32;34.86;102148.94;4199331;28;19919;-70
2022/03/09 02:47:41;;;;;;;14.55;3.03;;;;;;;22.31;34.95;102150.03;4198933;28;20097;-71
2022/03/09 02:49:43;;;;;;;13.02;2.80;;;;;;;22.31;34.82;102151.97;4198792;28;20094;-70
2022/03/09 02:51:44;;;;;;;18.40;3.70;;;;;;;22.28;35.12;102153.34;4200864;28;20040;-69
2022/03/09 02:53:45;;;;;;;14.07;2.53;;;;;;;22.29;35.16;102151.41;4200449;28;20078;-70
2022/03/09 02:55:47;;;;;;;11.05;2.72;;;;;;;22.26;35.22;102138.81;4198309;28;20032;-71
2022/03/09 02:57:48;;;;;;;12.30;3.20;;;;;;;22.28;34.89;102158.91;4198459;28;20109;-71
2022/03/09 02:59:50;;;;;;;11.18;3.10;;;;;;;22.25;35.15;102145.50;4198815;28;20438;-70
2022/03/09 03:01:53;;;;;;;14.65;3.25;;;;;;;22.25;35.13;102159.44;4198200;28;20094;-70
2022/03/09 03:03:54;;;;;;;13.30;2.97;;;;;;;22.25;35.08;102153.84;4198639;28;20090;-70
2022/03/09 03:05:55;;;;;;;15.45;2.97;;;;;;;22.25;35.23;102148.28;4198245;28;20086;-70
2022/03/09 03:07:59;;;;;;;13.93;3.28;;;;;;;22.24;35.12;102159.69;4198209;28;20066;-71
2022/03/09 03:10:02;;;;;;;12.88;2.72;;;;;;;22.25;35.04;102165.00;4199162;28;20028;-70
2022/03/09 03:12:06;;;;;;;11.60;2.70;;;;;;;22.25;34.80;102156.66;4198370;28;20028;-70
2022/03/09 03:14:07;;;;;;;13.77;2.97;;;;;;;22.25;35.02;102153.84;4198904;28;20455;-71
2022/03/09 03:16:10;;;;;;;11.68;2.50;;;;;;;22.24;34.96;102154.13;4197740;28;20495;-70
2022/03/09 03:18:11;;;;;;;13.18;3.08;;;;;;;22.25;34.71;102150.22;4198456;28;20534;-71
2022/03/09 03:20:15;;;;;;;12.75;2.65;;;;;;;22.25;35.05;102141.88;4202923;28;20094;-71
2022/03/09 03:22:16;;;;;;;10.02;2.58;;;;;;;22.24;35.08;102146.59;4198089;28;20086;-71
2022/03/09 03:24:18;;;;;;;9.38;2.40;;;;;;;22.25;34.93;102153.84;4198706;28;20530;-71
2022/03/09 03:26:19;;;;;;;18.63;2.65;;;;;;;22.20;34.71;102156.59;4197902;28;20060;-72
2022/03/09 03:28:21;;;;;;;11.70;2.85;;;;;;;22.23;34.74;102150.50;4201307;28;20020;-69
2022/03/09 03:30:23;;;;;;;14.05;2.63;;;;;;;22.24;34.70;102141.03;4197734;28;20373;-70
2022/03/09 03:32:24;;;;;;;10.73;2.60;;;;;;;22.22;34.75;102137.66;4197759;28;20504;-70
2022/03/09 03:34:26;;;;;;;10.10;2.38;;;;;;;22.21;34.76;102135.13;4198214;28;20434;-71
2022/03/09 03:36:27;;;;;;;15.52;3.13;;;;;;;22.21;34.72;102135.97;4197734;28;20098;-71
2022/03/09 03:38:31;;;;;;;13.02;3.78;;;;;;;22.22;34.86;102142.38;4198302;28;20434;-70
2022/03/09 03:40:33;;;;;;;9.48;2.22;;;;;;;22.23;35.13;102138.50;4198162;28;20040;-71
2022/03/09 03:42:34;;;;;;;10.65;2.60;;;;;;;22.19;34.73;102140.13;4197668;28;20105;-71
2022/03/09 03:44:36;;;;;;;13.98;2.40;;;;;;;22.21;35.02;102141.53;4202993;28;20024;-71
2022/03/09 03:46:41;;;;;;;15.30;3.05;;;;;;;22.21;34.62;102130.38;4198487;28;20442;-70
2022/03/09 03:48:42;;;;;;;12.85;2.60;;;;;;;22.21;34.99;102135.97;4197914;28;20040;-70
2022/03/09 03:50:44;;;;;;;9.93;2.25;;;;;;;22.22;34.76;102129.31;4198277;28;20041;-71
2022/03/09 03:52:45;;;;;;;8.43;1.95;;;;;;;22.21;34.77;102135.97;4198701;28;20464;-70
2022/03/09 03:54:47;;;;;;;9.20;2.63;;;;;;;22.17;34.64;102143.16;4198476;28;20036;-70
2022/03/09 03:56:48;;;;;;;13.20;2.75;;;;;;;22.22;34.94;102147.94;4202578;28;20032;-69
2022/03/09 03:58:52;;;;;;;10.60;2.90;;;;;;;22.21;34.87;102147.13;4197930;28;20407;-69
2022/03/09 04:00:54;;;;;;;8.10;2.33;;;;;;;22.17;34.97;102140.38;4197824;28;20090;-70
2022/03/09 04:03:00;;;;;;;9.75;2.58;;;;;;;22.16;35.02;102138.69;4198129;28;20036;-70
2022/03/09 04:05:02;;;;;;;11.02;2.63;;;;;;;22.22;35.07;102145.16;4180626;28;20045;-69
2022/03/09 04:07:04;;;;;;;7.63;2.65;;;;;;;22.21;34.92;102130.38;4197134;28;20040;-70
2022/03/09 04:09:05;;;;;;;8.93;2.08;;;;;;;22.20;34.80;102131.50;4197300;28;20037;-70
2022/03/09 04:11:07;;;;;;;9.77;2.53;;;;;;;22.19;34.91;102121.44;4202150;28;20035;-69
2022/03/09 04:13:08;;;;;;;9.75;2.58;;;;;;;22.19;34.96;102120.63;4215786;28;20040;-69
2022/03/09 04:15:09;;;;;;;9.55;2.30;;;;;;;22.18;34.53;102114.19;4197896;28;20082;-69
2022/03/09 04:17:11;;;;;;;10.77;2.13;;;;;;;22.18;34.91;102119.78;4198220;28;20037;-70
2022/03/09 04:19:12;;;;;;;8.35;1.95;;;;;;;22.18;34.64;102130.09;4199166;28;20041;-69
2022/03/09 04:21:13;;;;;;;7.32;2.85;;;;;;;22.16;34.71;102133.13;4201176;28;20089;-69
2022/03/09 04:23:15;;;;;;;7.60;2.28;;;;;;;22.18;34.59;102124.50;4214142;28;20040;-69
2022/03/09 04:25:16;;;;;;;6.78;1.98;;;;;;;22.18;34.86;102118.94;4214234;28;20044;-70
2022/03/09 04:27:18;;;;;;;7.53;1.92;;;;;;;22.18;34.93;102139.28;4212269;28;20487;-72
2022/03/09 04:29:19;;;;;;;54.65;28.15;;;;;;;22.17;34.50;102156.25;4208470;28;20112;-71
2022/03/09 04:31:20;;;;;;;129.27;71.25;;;;;;;22.17;33.92;102145.94;4211404;28;20040;-70
2022/03/09 04:33:22;;;;;;;161.57;80.75;;;;;;;22.17;34.21;102129.22;4214186;28;20040;-64
2022/03/09 04:35:26;;;;;;;161.10;76.35;;;;;;;22.21;34.05;102141.53;4213930;28;20036;-60
2022/03/09 04:37:30;;;;;;;110.18;62.35;;;;;;;22.20;34.06;102152.97;4212992;28;20509;-61
2022/03/09 04:39:32;;;;;;;94.22;52.30;;;;;;;22.19;33.81;102138.19;4214048;28;20078;-61
2022/03/09 04:41:33;;;;;;;87.80;46.97;;;;;;;22.18;33.89;102144.88;4208710;28;20044;-62
2022/03/09 04:43:34;;;;;;;88.43;44.70;;;;;;;22.17;33.99;102150.69;4200522;28;20541;-61
2022/03/09 04:45:36;;;;;;;93.18;45.10;;;;;;;22.17;34.37;102151.53;4200590;28;20040;-62
2022/03/09 04:47:37;;;;;;;85.55;40.13;;;;;;;22.16;34.02;102147.06;4201119;28;20040;-62
2022/03/09 04:49:45;;;;;;;71.32;36.38;;;;;;;22.17;33.77;102145.94;4200582;28;20429;-60
2022/03/09 04:51:47;;;;;;;69.03;36.80;;;;;;;22.18;33.99;102158.81;4206763;28;20032;-60
2022/03/09 04:53:50;;;;;;;68.55;37.67;;;;;;;22.15;34.23;102156.53;4219569;28;20044;-62
2022/03/09 04:55:53;;;;;;;76.30;36.60;;;;;;;22.16;33.93;102138.69;4185628;28;20091;-63
2022/03/09 04:57:54;;;;;;;70.05;35.20;;;;;;;22.16;33.63;102137.84;4186768;28;20041;-60
2022/03/09 05:00:08;;;;;;;74.53;35.40;;;;;;;22.14;34.20;102132.53;4183407;28;20148;-61
2022/03/09 05:02:10;;;;;;;75.38;34.40;;;;;;;22.17;33.95;102118.06;4207759;28;20094;-61
2022/03/09 05:04:11;;;;;;;64.18;35.42;;;;;;;22.17;33.89;102112.50;4215592;28;20044;-61
2022/03/09 05:06:16;;;;;;;66.63;32.58;;;;;;;22.17;34.12;102109.69;4203265;28;20483;-61
2022/03/09 05:08:18;;;;;;;65.00;32.28;;;;;;;22.19;34.28;102088.00;4201151;28;20028;-61
2022/03/09 05:10:25;;;;;;;66.40;32.92;;;;;;;22.17;34.26;102083.78;4202199;28;20479;-61
2022/03/09 05:12:26;;;;;;;67.32;31.63;;;;;;;22.21;33.92;102080.19;4200809;28;20086;-60
2022/03/09 05:14:28;;;;;;;57.97;30.02;;;;;;;22.20;33.92;102078.53;4197331;28;20036;-61
2022/03/09 05:16:32;;;;;;;55.15;29.85;;;;;;;22.20;33.75;102072.94;4200648;28;20058;-61
2022/03/09 05:18:37;;;;;;;51.58;27.13;;;;;;;22.20;33.61;102088.84;4199914;28;20100;-60
2022/03/09 05:20:38;;;;;;;52.53;25.50;;;;;;;22.22;34.04;102084.69;4199367;28;20450;-61
2022/03/09 05:22:42;;;;;;;56.15;27.10;;;;;;;22.20;33.74;102064.59;4200061;28;20449;-61
2022/03/09 05:24:47;;;;;;;48.70;24.40;;;;;;;22.19;34.10;102060.13;4202158;28;20395;-59
2022/03/09 05:26:48;;;;;;;43.72;24.60;;;;;;;22.21;33.63;102080.19;4217831;28;20422;-59
2022/03/09 05:28:50;;;;;;;43.67;24.05;;;;;;;22.22;33.87;102073.53;4216802;28;20062;-60
2022/03/09 05:30:52;;;;;;;47.75;24.05;;;;;;;22.21;34.02;102069.03;4208963;28;20423;-60
2022/03/09 05:32:53;;;;;;;45.00;22.35;;;;;;;22.22;33.60;102078.25;4199362;28;21167;-60
2022/03/09 05:34:55;;;;;;;43.35;22.50;;;;;;;22.21;33.80;102080.19;4182676;28;20045;-60
2022/03/09 05:36:56;;;;;;;37.85;20.83;;;;;;;22.21;33.66;102079.34;4196811;28;20048;-60
2022/03/09 05:38:58;;;;;;;38.90;20.23;;;;;;;22.22;33.81;102069.88;4198506;28;20040;-60
2022/03/09 05:40:59;;;;;;;37.97;20.23;;;;;;;22.22;33.63;102079.13;4198748;28;20036;-60
2022/03/09 05:43:01;;;;;;;40.67;19.65;;;;;;;22.19;33.90;102064.84;4194647;28;20457;-60
2022/03/09 05:45:04;;;;;;;34.97;19.08;;;;;;;22.18;33.47;102050.06;4199452;28;20041;-60
2022/03/09 05:47:06;;;;;;;36.15;18.15;;;;;;;22.19;33.46;102048.97;4200331;28;20020;-60
2022/03/09 05:49:10;;;;;;;31.23;18.00;;;;;;;22.18;33.65;102047.28;4199656;28;20040;-60
2022/03/09 05:51:12;;;;;;;33.22;17.60;;;;;;;22.18;33.37;102044.50;4198107;28;20478;-59
2022/03/09 05:53:13;;;;;;;35.20;18.25;;;;;;;22.20;33.35;102050.63;4203820;28;20417;-60
2022/03/09 05:55:15;;;;;;;31.10;16.52;;;;;;;22.17;33.58;102062.31;4174898;28;20033;-61
2022/03/09 05:57:21;;;;;;;34.70;15.75;;;;;;;22.18;33.47;102063.19;4198247;28;20033;-60
2022/03/09 05:59:22;;;;;;;30.25;16.05;;;;;;;22.18;33.39;102075.16;4199481;28;20044;-59
2022/03/09 06:01:24;;;;;;;29.20;16.67;;;;;;;22.17;33.37;102079.03;4199622;28;20040;-64
2022/03/09 06:03:25;;;;;;;32.38;15.90;;;;;;;22.17;33.24;102083.78;4199321;28;20040;-61
2022/03/09 06:05:27;;;;;;;23.75;14.90;;;;;;;22.18;33.62;102091.06;4199018;28;20040;-59
2022/03/09 06:07:30;;;;;;;33.90;16.17;;;;;;;22.17;33.54;102092.97;4198712;28;20122;-60
2022/03/09 06:09:32;;;;;;;22.98;13.90;;;;;;;22.20;33.16;102088.84;4199849;28;20041;-60
2022/03/09 06:11:33;;;;;;;28.17;14.35;;;;;;;22.13;33.29;102071.44;4197157;28;20032;-59
2022/03/09 06:13:38;;;;;;;25.15;13.75;;;;;;;22.17;33.39;102061.47;4202355;28;20036;-61
2022/03/09 06:15:39;;;;;;;25.08;14.02;;;;;;;22.17;33.24;102067.88;4199604;28;20040;-60
2022/03/09 06:17:47;;;;;;;24.40;13.73;;;;;;;22.16;33.72;102066.22;4200122;28;20040;-61
2022/03/09 06:19:49;;;;;;;24.20;13.10;;;;;;;22.17;33.38;102083.78;4200012;28;20037;-61
2022/03/09 06:21:50;;;;;;;25.17;12.95;;;;;;;22.16;33.59;102093.25;4199216;28;20117;-61
2022/03/09 06:23:51;;;;;;;25.70;13.45;;;;;;;22.15;33.34;102102.72;4198638;28;20098;-60
2022/03/09 06:25:53;;;;;;;22.38;12.10;;;;;;;22.13;33.41;102091.84;4200015;28;20040;-60
2022/03/09 06:27:55;;;;;;;25.00;12.75;;;;;;;22.14;33.36;102092.69;4200063;28;20041;-61
2022/03/09 06:29:57;;;;;;;21.63;11.38;;;;;;;22.13;33.26;102082.59;4200074;28;20106;-59
2022/03/09 06:32:00;;;;;;;19.30;11.10;;;;;;;22.09;33.12;102068.34;4199878;28;20094;-60
2022/03/09 06:34:02;;;;;;;17.75;10.20;;;;;;;22.12;33.41;102067.00;4199754;28;20033;-59
2022/03/09 06:36:06;;;;;;;20.58;11.05;;;;;;;22.13;33.16;102075.13;4199688;28;20377;-61
2022/03/09 06:38:08;;;;;;;18.30;10.48;;;;;;;22.13;33.47;102072.31;4199786;28;20533;-59
2022/03/09 06:40:10;;;;;;;21.23;10.88;;;;;;;22.10;33.40;102061.66;4203259;28;20117;-59
2022/03/09 06:42:11;;;;;;;23.73;10.82;;;;;;;22.14;33.12;102056.44;4198691;28;20044;-61
2022/03/09 06:44:14;;;;;;;16.92;9.82;;;;;;;22.13;33.45;102055.59;4199705;28;20472;-60
2022/03/09 06:46:16;;;;;;;18.27;9.85;;;;;;;22.14;32.97;102062.00;4199542;28;20045;-62
2022/03/09 06:48:17;;;;;;;21.20;9.90;;;;;;;22.14;33.08;102054.50;4199357;28;20044;-59
2022/03/09 06:50:19;;;;;;;16.67;9.68;;;;;;;22.12;33.45;102039.94;4199190;28;20100;-61
2022/03/09 06:52:20;;;;;;;20.75;10.30;;;;;;;22.10;32.98;102033.78;4198572;28;20041;-60
2022/03/09 06:54:22;;;;;;;14.02;8.48;;;;;;;22.11;33.42;102035.47;4199100;28;20063;-60
2022/03/09 06:56:23;;;;;;;14.15;9.35;;;;;;;22.12;32.79;102014.03;4198809;28;20041;-62
2022/03/09 06:58:26;;;;;;;13.15;8.00;;;;;;;22.12;33.17;102008.44;4199651;28;20098;-61
2022/03/09 07:00:27;;;;;;;15.20;8.32;;;;;;;22.11;32.81;101990.03;4199507;28;20098;-61
2022/03/09 07:02:29;;;;;;;18.70;8.93;;;;;;;22.10;33.25;101991.97;4198273;28;20064;-60
2022/03/09 07:04:31;;;;;;;15.30;8.10;;;;;;;22.10;32.82;101994.75;4197258;28;20086;-60
2022/03/09 07:06:32;;;;;;;10.57;6.97;;;;;;;22.09;33.25;101990.28;4199589;28;20040;-60
2022/03/09 07:08:34;;;;;;;17.67;9.15;;;;;;;22.09;33.16;101981.94;4197941;28;20060;-60
2022/03/09 07:10:36;;;;;;;14.52;7.75;;;;;;;22.10;33.10;101979.97;4206640;28;20089;-61
2022/03/09 07:12:39;;;;;;;12.07;7.30;;;;;;;22.05;33.13;101977.97;4214283;28;20082;-60
2022/03/09 07:14:41;;;;;;;16.27;7.63;;;;;;;22.10;33.26;101982.75;4214742;28;20052;-61
2022/03/09 07:16:44;;;;;;;12.10;7.30;;;;;;;22.10;32.72;101988.34;4214809;28;20455;-60
2022/03/09 07:18:45;;;;;;;11.48;7.32;;;;;;;22.09;33.04;101993.06;4192148;28;20404;-62
2022/03/09 07:20:46;;;;;;;12.95;7.00;;;;;;;22.09;32.97;101981.94;4197995;28;20098;-59
2022/03/09 07:22:48;;;;;;;12.27;7.18;;;;;;;22.09;33.16;101970.78;4197242;28;20049;-61
2022/03/09 07:24:50;;;;;;;12.27;6.80;;;;;;;22.07;32.95;101970.19;4202553;28;20033;-61
2022/03/09 07:26:57;;;;;;;14.55;7.55;;;;;;;22.07;32.92;101959.03;4197932;28;20090;-61
2022/03/09 07:29:02;;;;;;;12.25;6.35;;;;;;;22.03;32.56;101950.34;4181385;28;20045;-61
2022/03/09 07:31:06;;;;;;;;;;;;;;;22.06;32.75;101943.41;4182549;28;20037;-61
2022/03/09 07:33:07;;;;;;;10.23;6.55;;;;;;;22.11;32.52;101935.09;4201210;28;19958;-61
2022/03/09 07:35:10;;;;;;;11.63;6.32;;;;;;;22.09;32.91;101920.59;4198676;28;20036;-61
2022/03/09 07:37:12;;;;;;;9.02;5.90;;;;;;;22.06;32.51;101909.97;4198446;28;20040;-61
2022/03/09 07:39:14;;;;;;;12.55;6.70;;;;;;;22.05;32.98;101891.56;4214252;28;20032;-61
2022/03/09 07:41:15;;;;;;;9.45;5.82;;;;;;;22.04;32.68;101887.94;4209802;28;20040;-60
2022/03/09 07:43:16;;;;;;;8.43;5.00;;;;;;;22.04;32.83;101884.31;4199646;28;20040;-60
2022/03/09 07:45:18;;;;;;;7.85;5.28;;;;;;;22.03;33.00;101877.06;4200577;28;20052;-60
2022/03/09 07:47:20;;;;;;;10.45;5.47;;;;;;;22.04;32.59;101884.31;4189271;28;20045;-60
2022/03/09 07:49:22;;;;;;;9.30;5.28;;;;;;;22.05;32.86;101881.25;4199452;28;20048;-60
2022/03/09 07:51:23;;;;;;;9.82;4.45;;;;;;;22.04;32.99;101878.75;4212434;28;20472;-60
2022/03/09 07:53:24;;;;;;;10.02;5.13;;;;;;;22.03;32.62;101882.63;4217891;28;20036;-59
2022/03/09 07:55:26;;;;;;;9.38;5.10;;;;;;;22.02;32.83;101867.00;4217245;28;20044;-60
2022/03/09 07:57:27;;;;;;;7.43;5.13;;;;;;;22.02;32.94;101867.00;4217254;28;20085;-61
2022/03/09 07:59:29;;;;;;;8.15;4.95;;;;;;;21.98;32.58;101872.28;4212884;28;20040;-61
2022/03/09 08:01:31;;;;;;;8.25;4.43;;;;;;;21.98;32.40;101860.28;4207943;28;20033;-61
2022/03/09 08:03:33;;;;;;;9.07;4.97;;;;;;;22.01;32.77;101862.56;4208467;28;20036;-60
2022/03/09 08:05:35;;;;;;;6.63;4.40;;;;;;;21.99;32.44;101860.03;4207596;28;20048;-60
2022/03/09 08:07:36;;;;;;;7.97;4.60;;;;;;;21.99;32.52;101842.44;4204684;28;20093;-60
2022/03/09 08:09:38;;;;;;;8.20;4.68;;;;;;;21.98;32.68;101849.13;4205546;28;20041;-60
2022/03/09 08:11:39;;;;;;;4.97;3.63;;;;;;;21.93;32.50;101835.16;4201496;28;20058;-61
2022/03/09 08:13:41;;;;;;;6.35;3.70;;;;;;;21.96;32.63;101843.00;4201684;28;20095;-61
2022/03/09 08:15:42;;;;;;;7.70;4.32;;;;;;;21.96;32.82;101845.78;4209582;28;20109;-60
2022/03/09 08:17:44;;;;;;;7.47;4.28;;;;;;;21.98;32.62;101852.75;4210408;28;20032;-61
2022/03/09 08:19:45;;;;;;;6.07;3.72;;;;;;;22.00;32.63;101849.72;4198959;28;20102;-60
2022/03/09 08:21:47;;;;;;;6.72;4.15;;;;;;;21.99;32.65;101848.03;4209847;28;20040;-61
2022/03/09 08:23:48;;;;;;;6.20;4.10;;;;;;;21.98;32.55;101829.63;4204452;28;20040;-61
2022/03/09 08:25:53;;;;;;;5.47;3.75;;;;;;;21.96;32.49;101831.84;4199642;28;20044;-61
2022/03/09 08:27:54;;;;;;;5.40;3.58;;;;;;;21.97;32.59;101836.31;4201214;28;20041;-61
2022/03/09 08:29:56;;;;;;;7.45;4.13;;;;;;;21.96;32.53;101838.28;4209895;28;20093;-59
2022/03/09 08:32:00;;;;;;;5.78;3.33;;;;;;;21.97;32.35;101836.31;4213903;28;20093;-60
2022/03/09 08:34:01;;;;;;;6.77;3.80;;;;;;;21.97;32.31;101828.78;4210036;28;20048;-60
2022/03/09 08:36:03;;;;;;;6.13;3.75;;;;;;;21.97;32.23;101830.75;4199662;28;20036;-60
2022/03/09 08:38:07;;;;;;;5.93;4.00;;;;;;;21.96;32.22;101827.13;4198572;28;20075;-59
2022/03/09 08:40:12;;;;;;;5.90;3.58;;;;;;;21.97;32.40;101823.22;4197137;28;20553;-61
2022/03/09 08:42:15;;;;;;;5.78;2.95;;;;;;;21.96;32.35;101831.84;4203895;28;20105;-60
2022/03/09 08:44:16;;;;;;;5.40;3.08;;;;;;;21.94;32.22;101829.31;4206847;28;20090;-59
2022/03/09 08:46:18;;;;;;;5.38;3.53;;;;;;;21.92;32.43;101830.72;4197087;28;20106;-59
2022/03/09 08:48:19;;;;;;;5.43;3.05;;;;;;;21.93;32.64;101826.81;4206057;28;20040;-60
2022/03/09 08:50:20;;;;;;;5.80;2.90;;;;;;;21.90;32.65;101836.56;4208197;28;20044;-59
2022/03/09 08:52:22;;;;;;;5.03;3.22;;;;;;;21.93;32.47;101843.53;4196414;28;20102;-60
2022/03/09 08:54:23;;;;;;;5.10;2.95;;;;;;;21.93;32.60;101849.09;4197577;28;20464;-60
2022/03/09 08:56:27;;;;;;;5.35;3.30;;;;;;;21.93;32.44;101860.25;4197394;28;20094;-60
2022/03/09 08:58:29;;;;;;;4.13;2.67;;;;;;;21.86;32.48;101848.50;4196762;28;20041;-59
2022/03/09 09:00:33;;;;;;;5.20;3.10;;;;;;;21.90;32.48;101853.28;4196719;28;20086;-59
2022/03/09 09:02:34;;;;;;;4.40;2.80;;;;;;;21.89;32.47;101847.94;4196902;28;20102;-60
2022/03/09 09:04:36;;;;;;;4.97;3.17;;;;;;;21.91;32.60;101854.94;4197333;28;20040;-60
2022/03/09 09:06:40;;;;;;;4.05;2.92;;;;;;;21.91;32.16;101846.59;4197555;28;20033;-60
2022/03/09 09:08:42;;;;;;;5.47;3.03;;;;;;;21.87;32.13;101836.25;4196542;28;20044;-60
2022/03/09 09:10:43;;;;;;;3.85;2.75;;;;;;;21.90;32.32;101818.97;4197138;28;20307;-60
2022/03/09 09:12:46;;;;;;;3.63;2.17;;;;;;;21.94;32.27;101818.16;4196945;28;20452;-60
2022/03/09 09:14:47;;;;;;;4.10;2.33;;;;;;;21.91;32.51;101818.72;4197274;28;20118;-59
2022/03/09 09:16:49;;;;;;;3.53;2.20;;;;;;;21.93;32.39;101802.56;4197108;28;20044;-60
2022/03/09 09:18:50;;;;;;;4.70;2.58;;;;;;;21.95;32.13;101796.75;4196814;28;20048;-60
2022/03/09 09:20:53;;;;;;;5.53;2.63;;;;;;;21.95;32.39;101785.59;4207136;28;20040;-60
2022/03/09 09:22:56;;;;;;;4.03;2.60;;;;;;;21.94;32.24;101783.91;4211444;28;20108;-60